ADDS METAR Data INFO
IDs: Format: Raw Decoded Include TAF

Data at: 1216 UTC 22 Feb 2018

KAXN 221153Z AUTO 13006KT 10SM CLR M17/M19 A3051 RMK AO2 SLP371 I6000 T11671189 11161 21189 56003
KAXN 221053Z AUTO 15006KT 10SM CLR M17/M19 A3051 RMK AO2 SLP369 T11671189
KAXN 220953Z AUTO 14004KT 10SM CLR M17/M19 A3051 RMK AO2 SLP369 T11721194
KAXN 220853Z AUTO 12004KT 10SM CLR M17/M19 A3052 RMK AO2 SLP372 I3000 T11721194 58008
KAXN 220753Z AUTO 14006KT 10SM CLR M17/M19 A3053 RMK AO2 SLP376 I1000 T11671194
KAXN 220653Z AUTO 00000KT 10SM CLR M18/M21 A3054 RMK AO2 SLP381 T11831206
KAXN 220553Z AUTO 12003KT 10SM CLR M17/M19 A3055 RMK AO2 SLP383 T11671194 11122 21167 410941228 58001
KAXN 220453Z AUTO 16004KT 10SM CLR M16/M19 A3055 RMK AO2 SLP386 T11561194
KAXN 220353Z AUTO 17006KT 10SM CLR M16/M19 A3056 RMK AO2 SLP389 T11561194
KAXN 212353Z AUTO 21005KT 10SM CLR M12/M18 A3054 RMK AO2 SLP382 T11221183 11094 21128 50001
KAXN 212253Z AUTO 22007KT 10SM CLR M10/M18 A3055 RMK AO2 SLP385 T11001183
KAXN 212153Z AUTO 19008KT 10SM CLR M10/M18 A3055 RMK AO2 SLP382 T11001178
KAXN 212053Z AUTO 21003KT 10SM CLR M09/M18 A3054 RMK AO2 SLP378 T10941178 51001
KAXN 211953Z AUTO 25007KT 10SM CLR M11/M18 A3053 RMK AO2 SLP377 T11061183
KAXN 211853Z AUTO 18010KT 10SM CLR M12/M18 A3056 RMK AO2 SLP386 T11171183
KAXN 211753Z AUTO 21006KT 10SM CLR M13/M19 A3053 RMK AO2 SLP379 T11281189 11128 21228 51022
KAXN 211653Z AUTO 24005KT 10SM CLR M15/M20 A3051 RMK AO2 SLP372 T11501200
KAXN 211553Z AUTO 24005KT 10SM CLR M17/M21 A3049 RMK AO2 SLP366 T11671211
KAXN 211453Z AUTO 23006KT 10SM CLR M20/M23 A3047 RMK AO2 SLP359 T12001228 51013
KAXN 211353Z AUTO 20006KT 10SM CLR M22/M24 A3046 RMK AO2 SLP359 T12171239
KAXN 211253Z AUTO 22007KT 10SM CLR M22/M24 A3045 RMK AO2 SLP354 T12221244
KAXN 210753Z AUTO 27011KT 10SM CLR M17/M21 A3034 RMK AO2 SLP313 T11671206
KAXN 210653Z AUTO 27011KT 10SM CLR M16/M20 A3033 RMK AO2 SLP305 T11611200
KAXN 210553Z AUTO 27011KT 10SM CLR M16/M19 A3030 RMK AO2 SLP297 T11611194 11139 21167 411001167 53019